createdAt,value
2018-12-15T00:00:31.016Z,2.00
2018-12-15T00:03:01.757Z,2.00
2018-12-15T00:05:32.384Z,1.90
2018-12-15T00:08:01.092Z,2.00
2018-12-15T00:10:29.869Z,2.00
2018-12-15T00:12:58.674Z,2.00
2018-12-15T00:15:27.467Z,2.00
2018-12-15T00:17:56.140Z,2.00
2018-12-15T00:20:24.825Z,1.90
2018-12-15T00:22:53.623Z,2.00
2018-12-15T00:25:22.300Z,2.00
2018-12-15T00:27:51.035Z,1.90
2018-12-15T00:30:19.793Z,2.00
2018-12-15T00:32:48.527Z,1.90
2018-12-15T00:35:17.291Z,2.00
2018-12-15T00:37:46.044Z,2.00
2018-12-15T00:40:14.804Z,2.00
2018-12-15T00:42:43.480Z,2.00
2018-12-15T00:45:12.330Z,1.90
2018-12-15T00:47:41.075Z,2.00
2018-12-15T00:50:10.729Z,2.00
2018-12-15T00:52:39.656Z,2.00
2018-12-15T00:55:08.417Z,1.90
2018-12-15T00:57:37.106Z,1.90
2018-12-15T01:00:06.016Z,2.00
2018-12-15T01:02:34.887Z,2.00
2018-12-15T01:05:03.802Z,2.00
2018-12-15T01:07:35.174Z,2.00
2018-12-15T01:10:04.191Z,2.00
2018-12-15T01:12:34.799Z,2.00
2018-12-15T01:15:03.760Z,1.90
2018-12-15T01:17:33.083Z,1.90
2018-12-15T01:20:01.834Z,1.90
2018-12-15T01:22:30.699Z,1.90
2018-12-15T01:24:59.367Z,1.90
2018-12-15T01:27:28.055Z,1.90
2018-12-15T01:29:56.787Z,1.90
2018-12-15T01:32:26.051Z,1.90
2018-12-15T01:34:54.761Z,1.90
2018-12-15T01:37:23.470Z,1.90
2018-12-15T01:39:52.351Z,1.90
2018-12-15T01:42:21.048Z,1.90
2018-12-15T01:44:49.729Z,1.90
2018-12-15T01:47:18.479Z,1.90
2018-12-15T01:49:47.247Z,1.90
2018-12-15T01:52:15.927Z,1.90
2018-12-15T01:54:44.624Z,1.90
2018-12-15T01:57:13.433Z,1.90
2018-12-15T01:59:42.175Z,1.90
2018-12-15T02:02:10.927Z,1.90
2018-12-15T02:04:39.659Z,1.80
2018-12-15T02:07:08.407Z,1.90
2018-12-15T02:09:37.080Z,1.90
2018-12-15T02:12:05.892Z,1.90
2018-12-15T02:14:34.724Z,1.90
2018-12-15T02:17:03.525Z,1.80
2018-12-15T02:19:32.263Z,1.80
2018-12-15T02:22:01.007Z,1.90
2018-12-15T02:24:29.824Z,1.80
2018-12-15T02:26:58.504Z,1.90
2018-12-15T02:29:27.182Z,1.90
2018-12-15T02:31:56.509Z,1.90
2018-12-15T02:34:25.250Z,1.80
2018-12-15T02:36:54.043Z,1.80
2018-12-15T02:39:23.086Z,1.80
2018-12-15T02:41:51.764Z,1.80
2018-12-15T02:44:20.511Z,1.80
2018-12-15T02:46:49.192Z,1.80
2018-12-15T02:49:18.999Z,1.80
2018-12-15T02:51:47.807Z,1.80
2018-12-15T02:54:16.612Z,1.70
2018-12-15T02:56:45.412Z,1.70
2018-12-15T02:59:14.156Z,1.70
2018-12-15T03:01:42.998Z,1.70
2018-12-15T03:04:11.789Z,1.80
2018-12-15T03:06:40.603Z,1.70
2018-12-15T03:09:09.779Z,1.70
2018-12-15T03:11:38.544Z,1.70
2018-12-15T03:14:07.384Z,1.80
2018-12-15T03:16:36.132Z,1.70
2018-12-15T03:19:12.099Z,1.70
2018-12-15T03:21:40.915Z,1.70
2018-12-15T03:24:09.633Z,1.70
2018-12-15T03:26:38.387Z,1.70
2018-12-15T03:29:07.104Z,1.70
2018-12-15T03:31:35.772Z,1.70
2018-12-15T03:34:04.503Z,1.80
2018-12-15T03:36:33.270Z,1.70
2018-12-15T03:39:01.951Z,1.80
2018-12-15T03:41:32.624Z,1.70
2018-12-15T03:44:01.415Z,1.70
2018-12-15T03:46:30.171Z,1.80
2018-12-15T03:48:58.908Z,1.70
2018-12-15T03:51:27.987Z,1.70
2018-12-15T03:53:56.668Z,1.70
2018-12-15T03:56:25.428Z,1.70
2018-12-15T03:58:54.217Z,1.70
2018-12-15T04:01:22.973Z,1.70
2018-12-15T04:03:51.652Z,1.70
2018-12-15T04:06:20.323Z,1.70
2018-12-15T04:08:49.312Z,1.70
2018-12-15T04:11:18.060Z,1.70
2018-12-15T04:13:46.808Z,1.70
2018-12-15T04:16:15.485Z,1.70
2018-12-15T04:18:44.179Z,1.70
2018-12-15T04:21:12.875Z,1.60
2018-12-15T04:23:41.844Z,1.60
2018-12-15T04:26:10.591Z,1.60
2018-12-15T04:28:39.327Z,1.60
2018-12-15T04:31:08.397Z,1.60
2018-12-15T04:33:37.259Z,1.60
2018-12-15T04:36:15.131Z,1.60
2018-12-15T04:38:43.913Z,1.60
2018-12-15T04:41:12.675Z,1.60
2018-12-15T04:43:41.402Z,1.60
2018-12-15T04:46:11.452Z,1.60
2018-12-15T04:48:41.222Z,1.60
2018-12-15T04:51:09.919Z,1.60
2018-12-15T04:53:38.676Z,1.70
2018-12-15T04:56:07.520Z,1.60
2018-12-15T04:58:36.422Z,1.70
2018-12-15T05:01:05.231Z,1.60
2018-12-15T05:03:34.002Z,1.70
2018-12-15T05:06:02.859Z,1.70
2018-12-15T05:08:31.589Z,1.70
2018-12-15T05:11:00.345Z,1.60
2018-12-15T05:13:29.023Z,1.60
2018-12-15T05:15:58.537Z,1.60
2018-12-15T05:18:27.240Z,1.60
2018-12-15T05:20:55.919Z,1.70
2018-12-15T05:23:24.663Z,1.60
2018-12-15T05:25:53.425Z,1.60
2018-12-15T05:28:22.111Z,1.70
2018-12-15T05:30:51.835Z,1.70
2018-12-15T05:33:20.501Z,1.60
2018-12-15T05:35:49.317Z,1.70
2018-12-15T05:38:24.836Z,1.60
2018-12-15T05:40:53.515Z,1.60
2018-12-15T05:43:22.203Z,1.70
2018-12-15T05:45:50.878Z,1.70
2018-12-15T05:48:25.220Z,1.60
2018-12-15T05:50:50.352Z,1.60
2018-12-15T05:53:19.897Z,1.60
2018-12-15T05:55:48.645Z,1.70
2018-12-15T05:58:17.311Z,1.70
2018-12-15T06:00:46.163Z,1.70
2018-12-15T06:03:14.975Z,1.70
2018-12-15T06:05:43.666Z,1.70
2018-12-15T06:08:12.418Z,1.60
2018-12-15T06:10:41.183Z,1.70
2018-12-15T06:13:09.884Z,1.70
2018-12-15T06:15:38.683Z,1.70
2018-12-15T06:18:07.793Z,1.70
2018-12-15T06:20:36.539Z,1.70
2018-12-15T06:23:05.289Z,1.70
2018-12-15T06:25:34.093Z,1.70
2018-12-15T06:28:02.840Z,1.70
2018-12-15T06:30:31.503Z,1.70
2018-12-15T06:33:00.225Z,1.70
2018-12-15T06:35:35.734Z,1.70
2018-12-15T06:38:04.476Z,1.70
2018-12-15T06:40:33.221Z,1.70
2018-12-15T06:43:01.908Z,1.70
2018-12-15T06:45:30.575Z,1.70
2018-12-15T06:47:59.259Z,1.70
2018-12-15T06:50:29.586Z,1.70
2018-12-15T06:52:59.009Z,1.70
2018-12-15T06:55:27.767Z,1.70
2018-12-15T06:57:57.121Z,1.70
2018-12-15T07:00:25.937Z,1.70
2018-12-15T07:02:54.717Z,1.70
2018-12-15T07:05:23.458Z,1.70
2018-12-15T07:07:53.172Z,1.70
2018-12-15T07:10:21.969Z,1.70
2018-12-15T07:12:50.671Z,1.70
2018-12-15T07:15:19.411Z,1.70
2018-12-15T07:17:48.092Z,1.70
2018-12-15T07:20:16.931Z,1.70
2018-12-15T07:22:45.624Z,1.70
2018-12-15T07:25:14.366Z,1.70
2018-12-15T07:27:43.135Z,1.70
2018-12-15T07:30:11.895Z,1.70
2018-12-15T07:32:40.644Z,1.70
2018-12-15T07:35:09.335Z,1.80
2018-12-15T07:37:38.208Z,1.80
2018-12-15T07:40:06.964Z,1.70
2018-12-15T07:42:35.644Z,1.70
2018-12-15T07:45:05.345Z,1.70
2018-12-15T07:47:35.191Z,1.70
2018-12-15T07:50:04.181Z,1.70
2018-12-15T07:52:32.903Z,1.70
2018-12-15T07:55:01.621Z,1.70
2018-12-15T07:57:30.496Z,1.80
2018-12-15T07:59:59.960Z,1.80
2018-12-15T08:02:30.207Z,1.80
2018-12-15T08:05:00.529Z,1.70
2018-12-15T08:07:30.159Z,1.80
2018-12-15T08:10:00.821Z,1.80
2018-12-15T08:12:35.642Z,1.80
2018-12-15T08:15:04.905Z,1.80
2018-12-15T08:17:33.700Z,1.80
2018-12-15T08:20:02.534Z,1.70
2018-12-15T08:22:31.515Z,1.80
2018-12-15T08:25:01.069Z,1.80
2018-12-15T08:27:30.164Z,1.80
2018-12-15T08:29:59.040Z,1.80
2018-12-15T08:32:27.857Z,1.80
2018-12-15T08:34:56.546Z,1.80
2018-12-15T08:37:25.291Z,1.80
2018-12-15T08:39:53.971Z,1.80
2018-12-15T08:42:22.734Z,1.80
2018-12-15T08:44:51.476Z,1.80
2018-12-15T08:47:20.187Z,1.80
2018-12-15T08:49:48.880Z,1.80
2018-12-15T08:52:17.681Z,1.80
2018-12-15T08:54:46.383Z,1.80
2018-12-15T08:57:20.589Z,1.80
2018-12-15T08:59:49.409Z,1.80
2018-12-15T09:02:18.391Z,1.80
2018-12-15T09:04:47.159Z,1.80
2018-12-15T09:07:16.666Z,1.80
2018-12-15T09:09:45.559Z,1.80
2018-12-15T09:12:14.263Z,1.80
2018-12-15T09:14:43.059Z,1.90
2018-12-15T09:17:12.823Z,1.90
2018-12-15T09:19:41.735Z,1.90
2018-12-15T09:22:11.436Z,1.90
2018-12-15T09:24:40.468Z,1.90
2018-12-15T09:27:10.264Z,1.90
2018-12-15T09:29:39.118Z,1.90
2018-12-15T09:32:07.925Z,1.90
2018-12-15T09:34:36.637Z,1.90
2018-12-15T09:37:05.371Z,2.00
2018-12-15T09:39:34.085Z,1.90
2018-12-15T09:42:02.802Z,1.90
2018-12-15T09:44:31.580Z,2.00
2018-12-15T09:47:00.655Z,2.00
2018-12-15T09:49:37.168Z,2.00
2018-12-15T09:52:05.939Z,2.00
2018-12-15T09:54:34.740Z,2.10
2018-12-15T09:57:03.535Z,2.10
2018-12-15T09:59:32.396Z,2.10
2018-12-15T10:02:01.143Z,2.10
2018-12-15T10:04:30.837Z,2.10
2018-12-15T10:06:59.557Z,2.20
2018-12-15T10:09:28.544Z,2.20
2018-12-15T10:11:57.286Z,2.30
2018-12-15T10:14:26.055Z,2.30
2018-12-15T10:16:54.827Z,2.30
2018-12-15T10:19:24.421Z,2.30
2018-12-15T10:21:53.520Z,2.40
2018-12-15T10:24:22.375Z,2.30
2018-12-15T10:26:51.080Z,2.30
2018-12-15T10:29:25.317Z,2.30
2018-12-15T10:31:59.553Z,2.30
2018-12-15T10:34:28.372Z,2.40
2018-12-15T10:36:57.252Z,2.40
2018-12-15T10:39:26.005Z,2.40
2018-12-15T10:41:54.849Z,2.40
2018-12-15T10:44:23.559Z,2.50
2018-12-15T10:46:52.390Z,2.50
2018-12-15T10:49:23.071Z,2.50
2018-12-15T10:51:52.964Z,2.50
2018-12-15T10:54:21.737Z,2.50
2018-12-15T10:56:50.615Z,2.50
2018-12-15T10:59:19.480Z,2.50
2018-12-15T11:01:49.849Z,2.50
2018-12-15T11:04:18.829Z,2.60
2018-12-15T11:06:47.768Z,2.60
2018-12-15T11:09:16.536Z,2.50
2018-12-15T11:11:46.880Z,2.60
2018-12-15T11:14:16.122Z,2.60
2018-12-15T11:16:45.089Z,2.60
2018-12-15T11:19:14.158Z,2.60
2018-12-15T11:21:42.952Z,2.60
2018-12-15T11:24:11.661Z,2.60
2018-12-15T11:26:40.435Z,2.60
2018-12-15T11:29:09.190Z,2.60
2018-12-15T11:31:38.025Z,2.60
2018-12-15T11:34:06.831Z,2.60
2018-12-15T11:36:35.605Z,2.60
2018-12-15T11:39:06.695Z,2.60
2018-12-15T11:41:37.415Z,2.60
2018-12-15T11:44:06.241Z,2.60
2018-12-15T11:46:34.996Z,2.60
2018-12-15T11:49:03.844Z,2.60
2018-12-15T11:51:32.600Z,2.60
2018-12-15T11:54:01.891Z,2.60
2018-12-15T11:56:31.883Z,2.60
2018-12-15T11:59:02.451Z,2.60
2018-12-15T12:01:32.697Z,2.60
2018-12-15T12:04:01.936Z,2.60
2018-12-15T12:06:30.732Z,2.60
2018-12-15T12:08:59.550Z,2.50
2018-12-15T12:11:28.329Z,2.50
2018-12-15T12:14:00.312Z,2.50
2018-12-15T12:16:27.850Z,2.50
2018-12-15T12:18:56.593Z,2.50
2018-12-15T12:21:25.356Z,2.50
2018-12-15T12:23:54.063Z,2.50
2018-12-15T12:26:24.731Z,2.50
2018-12-15T12:28:53.736Z,2.50
2018-12-15T12:31:22.561Z,2.50
2018-12-15T12:33:51.271Z,2.50
2018-12-15T12:36:21.260Z,2.50
2018-12-15T12:41:26.060Z,2.60
2018-12-15T12:43:54.860Z,2.60
2018-12-15T12:46:23.727Z,2.60
2018-12-15T12:48:52.593Z,2.60
2018-12-15T12:51:21.393Z,2.60
2018-12-15T12:53:50.159Z,2.50
2018-12-15T12:56:18.841Z,2.50
2018-12-15T12:58:47.539Z,2.50
2018-12-15T13:01:16.395Z,2.40
2018-12-15T13:03:45.164Z,2.40
2018-12-15T13:06:13.845Z,2.40
2018-12-15T13:08:42.560Z,2.40
2018-12-15T13:11:11.311Z,2.40
2018-12-15T13:13:40.047Z,2.40
2018-12-15T13:16:08.712Z,2.40
2018-12-15T13:18:37.525Z,2.30
2018-12-15T13:21:07.359Z,2.30
2018-12-15T13:23:36.324Z,2.20
2018-12-15T13:26:05.135Z,2.20
2018-12-15T13:28:34.552Z,2.20
2018-12-15T13:31:04.320Z,2.10
2018-12-15T13:33:34.973Z,2.10
2018-12-15T13:36:11.243Z,2.10
2018-12-15T13:38:40.031Z,2.10
2018-12-15T13:41:08.841Z,2.10
2018-12-15T13:43:37.731Z,2.10
2018-12-15T13:46:06.544Z,2.30
2018-12-15T13:48:35.652Z,2.30
2018-12-15T13:51:04.502Z,2.20
2018-12-15T13:53:34.247Z,2.20
2018-12-15T13:56:02.996Z,2.20
2018-12-15T13:58:31.675Z,2.20
2018-12-15T14:01:00.519Z,2.10
2018-12-15T14:03:29.292Z,2.10
2018-12-15T14:05:58.120Z,2.10
2018-12-15T14:08:26.795Z,2.10
2018-12-15T14:10:55.605Z,2.00
2018-12-15T14:13:24.343Z,2.00
2018-12-15T14:15:53.125Z,1.90
2018-12-15T14:18:21.838Z,1.90
2018-12-15T14:20:50.728Z,1.90
2018-12-15T14:23:19.476Z,1.80
2018-12-15T14:25:48.191Z,1.80
2018-12-15T14:28:17.002Z,1.80
2018-12-15T14:30:45.815Z,1.70
2018-12-15T14:33:14.583Z,1.80
2018-12-15T14:35:43.291Z,1.70
2018-12-15T14:38:12.117Z,1.80
2018-12-15T14:40:40.891Z,1.70
2018-12-15T14:43:09.585Z,1.70
2018-12-15T14:45:39.555Z,1.70
2018-12-15T14:48:08.369Z,1.70
2018-12-15T14:50:37.184Z,1.70
2018-12-15T14:53:05.926Z,1.70
2018-12-15T14:55:34.703Z,1.60
2018-12-15T14:58:03.454Z,1.60
2018-12-15T15:00:32.225Z,1.60
2018-12-15T15:03:01.072Z,1.60
2018-12-15T15:05:29.852Z,1.60
2018-12-15T15:07:58.627Z,1.60
2018-12-15T15:10:27.497Z,1.60
2018-12-15T15:12:56.158Z,1.60
2018-12-15T15:15:24.843Z,1.60
2018-12-15T15:17:53.511Z,1.60
2018-12-15T15:20:22.191Z,1.50
2018-12-15T15:22:50.867Z,1.50
2018-12-15T15:25:19.566Z,1.50
2018-12-15T15:27:48.271Z,1.50
2018-12-15T15:30:17.063Z,1.50
2018-12-15T15:32:45.972Z,1.50
2018-12-15T15:35:14.767Z,1.40
2018-12-15T15:37:43.675Z,1.50
2018-12-15T15:40:12.506Z,1.40
2018-12-15T15:42:41.593Z,1.40
2018-12-15T15:45:10.449Z,1.40
2018-12-15T15:47:39.289Z,1.40
2018-12-15T15:50:08.999Z,1.30
2018-12-15T15:52:37.741Z,1.40
2018-12-15T15:55:07.295Z,1.30
2018-12-15T15:57:36.752Z,1.30
2018-12-15T16:00:07.147Z,1.20
2018-12-15T16:02:35.919Z,1.20
2018-12-15T16:05:05.052Z,1.20
2018-12-15T16:07:33.881Z,1.20
2018-12-15T16:10:02.712Z,1.10
2018-12-15T16:12:31.426Z,1.20
2018-12-15T16:15:00.175Z,1.10
2018-12-15T16:17:28.857Z,1.10
2018-12-15T16:19:57.599Z,1.10
2018-12-15T16:22:26.353Z,1.00
2018-12-15T16:24:55.125Z,1.00
2018-12-15T16:27:23.863Z,1.00
2018-12-15T16:29:52.611Z,0.90
2018-12-15T16:32:21.428Z,0.90
2018-12-15T16:34:50.306Z,0.90
2018-12-15T16:37:19.150Z,0.90
2018-12-15T16:39:47.835Z,0.80
2018-12-15T16:42:16.645Z,0.80
2018-12-15T16:44:45.475Z,0.70
2018-12-15T16:47:14.343Z,0.70
2018-12-15T16:49:43.133Z,0.70
2018-12-15T16:52:12.208Z,0.70
2018-12-15T16:54:41.230Z,0.70
2018-12-15T16:57:10.030Z,0.60
2018-12-15T16:59:38.722Z,0.60
2018-12-15T17:02:07.476Z,0.60
2018-12-15T17:04:36.279Z,0.60
2018-12-15T17:07:05.221Z,0.60
2018-12-15T17:09:34.853Z,0.60
2018-12-15T17:12:03.714Z,0.50
2018-12-15T17:14:32.533Z,0.50
2018-12-15T17:17:01.273Z,0.50
2018-12-15T17:19:30.152Z,0.50
2018-12-15T17:21:58.967Z,0.50
2018-12-15T17:24:27.764Z,0.50
2018-12-15T17:26:56.584Z,0.50
2018-12-15T17:29:25.353Z,0.50
2018-12-15T17:31:54.305Z,0.50
2018-12-15T17:34:23.212Z,0.60
2018-12-15T17:36:52.587Z,0.60
2018-12-15T17:39:22.503Z,0.70
2018-12-15T17:41:51.220Z,0.70
2018-12-15T17:44:20.192Z,0.70
2018-12-15T17:46:49.311Z,0.70
2018-12-15T17:49:20.100Z,0.70
2018-12-15T17:51:48.811Z,0.70
2018-12-15T17:54:17.566Z,0.70
2018-12-15T17:56:46.276Z,0.70
2018-12-15T17:59:15.042Z,0.70
2018-12-15T18:01:43.934Z,0.70
2018-12-15T18:04:12.617Z,0.80
2018-12-15T18:06:41.299Z,0.80
2018-12-15T18:09:10.016Z,0.80
2018-12-15T18:11:41.101Z,0.70
2018-12-15T18:14:09.863Z,0.80
2018-12-15T18:16:38.637Z,0.80
2018-12-15T18:19:08.759Z,0.90
2018-12-15T18:21:38.427Z,0.90
2018-12-15T18:24:07.391Z,0.90
2018-12-15T18:26:36.249Z,0.90
2018-12-15T18:29:06.122Z,0.90
2018-12-15T18:31:36.051Z,1.00
2018-12-15T18:34:05.814Z,1.00
2018-12-15T18:36:34.529Z,1.00
2018-12-15T18:39:04.983Z,1.00
2018-12-15T18:41:36.279Z,1.00
2018-12-15T18:44:06.074Z,1.10
2018-12-15T18:46:34.838Z,1.10
2018-12-15T18:49:03.551Z,1.10
2018-12-15T18:51:32.624Z,1.10
2018-12-15T18:54:01.544Z,1.20
2018-12-15T18:56:30.887Z,1.20
2018-12-15T18:59:00.118Z,1.20
2018-12-15T19:01:29.017Z,1.20
2018-12-15T19:03:57.771Z,1.20
2018-12-15T19:06:26.814Z,1.20
2018-12-15T19:08:55.645Z,1.30
2018-12-15T19:11:24.323Z,1.30
2018-12-15T19:13:53.087Z,1.30
2018-12-15T19:16:22.960Z,1.30
2018-12-15T19:18:51.669Z,1.30
2018-12-15T19:21:23.019Z,1.40
2018-12-15T19:23:51.103Z,1.40
2018-12-15T19:26:19.813Z,1.30
2018-12-15T19:28:48.643Z,1.40
2018-12-15T19:31:17.424Z,1.40
2018-12-15T19:33:46.119Z,1.40
2018-12-15T19:36:14.896Z,1.40
2018-12-15T19:38:43.663Z,1.40
2018-12-15T19:41:13.365Z,1.40
2018-12-15T19:43:42.139Z,1.40
2018-12-15T19:46:10.984Z,1.50
2018-12-15T19:48:39.851Z,1.40
2018-12-15T19:51:08.633Z,1.40
2018-12-15T19:53:37.339Z,1.40
2018-12-15T19:56:06.744Z,1.50
2018-12-15T19:58:36.372Z,1.40
2018-12-15T20:01:05.107Z,1.40
2018-12-15T20:03:34.899Z,1.40
2018-12-15T20:06:03.739Z,1.40
2018-12-15T20:08:32.924Z,1.50
2018-12-15T20:11:01.601Z,1.50
2018-12-15T20:13:31.381Z,1.50
2018-12-15T20:16:00.710Z,1.50
2018-12-15T20:18:29.416Z,1.50
2018-12-15T20:20:59.285Z,1.50
2018-12-15T20:23:28.987Z,1.50
2018-12-15T20:25:57.683Z,1.50
2018-12-15T20:28:26.395Z,1.50
2018-12-15T20:30:55.060Z,1.50
2018-12-15T20:33:23.848Z,1.50
2018-12-15T20:35:52.603Z,1.50
2018-12-15T20:38:21.321Z,1.50
2018-12-15T20:40:50.056Z,1.50
2018-12-15T20:43:18.736Z,1.60
2018-12-15T20:45:47.411Z,1.50
2018-12-15T20:48:16.221Z,1.50
2018-12-15T20:50:45.031Z,1.50
2018-12-15T20:53:13.819Z,1.50
2018-12-15T20:55:42.636Z,1.50
2018-12-15T20:58:11.343Z,1.50
2018-12-15T21:00:40.077Z,1.50
2018-12-15T21:03:08.796Z,1.50
2018-12-15T21:05:37.600Z,1.60
2018-12-15T21:08:07.067Z,1.60
2018-12-15T21:10:35.736Z,1.60
2018-12-15T21:13:04.543Z,1.60
2018-12-15T21:15:37.121Z,1.50
2018-12-15T21:18:05.888Z,1.50
2018-12-15T21:20:34.725Z,1.50
2018-12-15T21:23:03.571Z,1.50
2018-12-15T21:25:32.288Z,1.50
2018-12-15T21:28:01.285Z,1.50
2018-12-15T21:30:30.059Z,1.50
2018-12-15T21:32:58.867Z,1.50
2018-12-15T21:35:27.751Z,1.50
2018-12-15T21:37:56.441Z,1.40
2018-12-15T21:40:25.181Z,1.40
2018-12-15T21:42:53.867Z,1.40
2018-12-15T21:45:22.708Z,1.30
2018-12-15T21:47:57.429Z,1.30
2018-12-15T21:50:22.556Z,1.20
2018-12-15T21:52:51.745Z,1.20
2018-12-15T21:55:20.638Z,1.10
2018-12-15T21:57:49.351Z,1.10
2018-12-15T22:00:18.088Z,1.10
2018-12-15T22:02:46.820Z,1.10
2018-12-15T22:05:15.531Z,1.10
2018-12-15T22:07:44.324Z,1.10
2018-12-15T22:10:13.087Z,1.00
2018-12-15T22:12:41.801Z,1.00
2018-12-15T22:15:10.559Z,0.90
2018-12-15T22:17:39.378Z,0.90
2018-12-15T22:20:09.837Z,0.90
2018-12-15T22:22:39.373Z,0.80
2018-12-15T22:25:08.821Z,0.80
2018-12-15T22:27:38.529Z,0.80
2018-12-15T22:30:08.869Z,0.80
2018-12-15T22:32:37.695Z,0.70
2018-12-15T22:35:07.436Z,0.70
2018-12-15T22:37:36.187Z,0.70
2018-12-15T22:40:05.320Z,0.60
2018-12-15T22:42:34.022Z,0.60
2018-12-15T22:45:02.771Z,0.60
2018-12-15T22:47:31.725Z,0.50
2018-12-15T22:50:00.490Z,0.50
2018-12-15T22:52:29.223Z,0.50
2018-12-15T22:54:57.907Z,0.50
2018-12-15T22:57:26.720Z,0.50
2018-12-15T22:59:55.405Z,0.40
2018-12-15T23:02:24.208Z,0.40
2018-12-15T23:04:52.903Z,0.40
2018-12-15T23:07:21.716Z,0.40
2018-12-15T23:09:50.459Z,0.40
2018-12-15T23:12:19.215Z,0.40
2018-12-15T23:14:47.968Z,0.30
2018-12-15T23:17:16.712Z,0.40
2018-12-15T23:19:45.531Z,0.30
2018-12-15T23:22:16.415Z,0.40
2018-12-15T23:24:44.920Z,0.30
2018-12-15T23:27:14.059Z,0.30
2018-12-15T23:29:42.734Z,0.30
2018-12-15T23:32:11.467Z,0.20
2018-12-15T23:34:40.155Z,0.30
2018-12-15T23:37:08.827Z,0.20
2018-12-15T23:39:37.909Z,0.20
2018-12-15T23:42:06.678Z,0.20
2018-12-15T23:44:35.550Z,0.20
2018-12-15T23:47:04.293Z,0.20
2018-12-15T23:49:33.064Z,0.20
2018-12-15T23:52:01.794Z,0.20
2018-12-15T23:54:30.538Z,0.20
2018-12-15T23:56:59.263Z,0.20
2018-12-15T23:59:28.025Z,0.20
